sensor_id;sensor_type;location;lat;lon;timestamp;pressure;altitude;pressure_sealevel;temperature
67966;BMP280;54749;47.850;9.002;2022-07-10T00:00:42;96572.28;;;15.21
67966;BMP280;54749;47.850;9.002;2022-07-10T00:03:09;96569.34;;;15.25
67966;BMP280;54749;47.850;9.002;2022-07-10T00:05:36;96563.84;;;15.30
67966;BMP280;54749;47.850;9.002;2022-07-10T00:08:03;96561.63;;;15.36
67966;BMP280;54749;47.850;9.002;2022-07-10T00:10:30;96559.75;;;15.47
67966;BMP280;54749;47.850;9.002;2022-07-10T00:12:57;96558.28;;;15.54
67966;BMP280;54749;47.850;9.002;2022-07-10T00:15:24;96566.53;;;15.67
67966;BMP280;54749;47.850;9.002;2022-07-10T00:17:51;96562.94;;;15.78
67966;BMP280;54749;47.850;9.002;2022-07-10T00:20:20;96558.09;;;15.85
67966;BMP280;54749;47.850;9.002;2022-07-10T00:22:47;96551.25;;;15.85
67966;BMP280;54749;47.850;9.002;2022-07-10T00:25:14;96554.34;;;15.89
67966;BMP280;54749;47.850;9.002;2022-07-10T00:27:41;96547.94;;;15.94
67966;BMP280;54749;47.850;9.002;2022-07-10T00:30:11;96550.38;;;15.95
67966;BMP280;54749;47.850;9.002;2022-07-10T00:32:38;96555.88;;;16.00
67966;BMP280;54749;47.850;9.002;2022-07-10T00:35:06;96548.75;;;16.04
67966;BMP280;54749;47.850;9.002;2022-07-10T00:37:33;96547.44;;;16.09
67966;BMP280;54749;47.850;9.002;2022-07-10T00:40:00;96559.78;;;16.13
67966;BMP280;54749;47.850;9.002;2022-07-10T00:42:27;96559.78;;;16.13
67966;BMP280;54749;47.850;9.002;2022-07-10T00:44:54;96556.03;;;16.17
67966;BMP280;54749;47.850;9.002;2022-07-10T00:47:21;96557.34;;;16.21
67966;BMP280;54749;47.850;9.002;2022-07-10T00:49:48;96556.03;;;16.27
67966;BMP280;54749;47.850;9.002;2022-07-10T00:52:16;96555.75;;;16.30
67966;BMP280;54749;47.850;9.002;2022-07-10T00:54:48;96556.03;;;16.36
67966;BMP280;54749;47.850;9.002;2022-07-10T00:57:17;96549.53;;;16.41
67966;BMP280;54749;47.850;9.002;2022-07-10T00:59:45;96551.69;;;16.46
67966;BMP280;54749;47.850;9.002;2022-07-10T01:02:13;96555.56;;;16.49
67966;BMP280;54749;47.850;9.002;2022-07-10T01:04:41;96549.13;;;16.55
67966;BMP280;54749;47.850;9.002;2022-07-10T01:07:07;96539.72;;;16.55
67966;BMP280;54749;47.850;9.002;2022-07-10T01:09:34;96539.44;;;16.58
67966;BMP280;54749;47.850;9.002;2022-07-10T01:12:02;96550.06;;;16.63
67966;BMP280;54749;47.850;9.002;2022-07-10T01:14:30;96539.44;;;16.67
67966;BMP280;54749;47.850;9.002;2022-07-10T01:16:59;96547.78;;;16.69
67966;BMP280;54749;47.850;9.002;2022-07-10T01:19:27;96535.53;;;16.73
67966;BMP280;54749;47.850;9.002;2022-07-10T01:21:53;96536.34;;;16.73
67966;BMP280;54749;47.850;9.002;2022-07-10T01:24:20;96531.88;;;16.75
67966;BMP280;54749;47.850;9.002;2022-07-10T01:26:47;96535.94;;;16.78
67966;BMP280;54749;47.850;9.002;2022-07-10T01:29:14;96530.94;;;16.76
67966;BMP280;54749;47.850;9.002;2022-07-10T01:31:41;96540.00;;;16.71
67966;BMP280;54749;47.850;9.002;2022-07-10T01:34:09;96533.81;;;16.64
67966;BMP280;54749;47.850;9.002;2022-07-10T01:36:36;96538.25;;;16.62
67966;BMP280;54749;47.850;9.002;2022-07-10T01:39:05;96539.44;;;16.58
67966;BMP280;54749;47.850;9.002;2022-07-10T01:41:32;96538.94;;;16.55
67966;BMP280;54749;47.850;9.002;2022-07-10T01:44:00;96533.41;;;16.59
67966;BMP280;54749;47.850;9.002;2022-07-10T01:46:27;96536.66;;;16.61
67966;BMP280;54749;47.850;9.002;2022-07-10T01:48:54;96527.25;;;16.62
67966;BMP280;54749;47.850;9.002;2022-07-10T01:51:21;96526.44;;;16.61
67966;BMP280;54749;47.850;9.002;2022-07-10T01:53:48;96541.47;;;16.64
67966;BMP280;54749;47.850;9.002;2022-07-10T01:56:15;96530.97;;;16.67
67966;BMP280;54749;47.850;9.002;2022-07-10T01:58:43;96533.53;;;16.67
67966;BMP280;54749;47.850;9.002;2022-07-10T02:01:10;96537.69;;;16.68
67966;BMP280;54749;47.850;9.002;2022-07-10T02:03:38;96540.00;;;16.71
67966;BMP280;54749;47.850;9.002;2022-07-10T02:06:23;96532.34;;;16.71
67966;BMP280;54749;47.850;9.002;2022-07-10T02:08:51;96536.47;;;16.72
67966;BMP280;54749;47.850;9.002;2022-07-10T02:11:17;96540.25;;;16.68
67966;BMP280;54749;47.850;9.002;2022-07-10T02:13:44;96539.84;;;16.63
67966;BMP280;54749;47.850;9.002;2022-07-10T02:16:11;96535.84;;;16.61
67966;BMP280;54749;47.850;9.002;2022-07-10T02:18:38;96538.50;;;16.59
67966;BMP280;54749;47.850;9.002;2022-07-10T02:21:06;96536.91;;;16.58
67966;BMP280;54749;47.850;9.002;2022-07-10T02:23:34;96541.47;;;16.55
67966;BMP280;54749;47.850;9.002;2022-07-10T02:26:02;96547.94;;;16.49
67966;BMP280;54749;47.850;9.002;2022-07-10T02:28:29;96541.47;;;16.46
67966;BMP280;54749;47.850;9.002;2022-07-10T02:30:56;96546.88;;;16.43
67966;BMP280;54749;47.850;9.002;2022-07-10T02:33:23;96543.91;;;16.38
67966;BMP280;54749;47.850;9.002;2022-07-10T02:35:50;96558.00;;;16.32
67966;BMP280;54749;47.850;9.002;2022-07-10T02:38:17;96563.53;;;16.28
67966;BMP280;54749;47.850;9.002;2022-07-10T02:40:43;96550.63;;;16.20
67966;BMP280;54749;47.850;9.002;2022-07-10T02:43:11;96559.38;;;16.18
67966;BMP280;54749;47.850;9.002;2022-07-10T02:45:38;96558.69;;;16.16
67966;BMP280;54749;47.850;9.002;2022-07-10T02:48:11;96554.69;;;16.13
67966;BMP280;54749;47.850;9.002;2022-07-10T02:50:38;96560.59;;;16.14
67966;BMP280;54749;47.850;9.002;2022-07-10T02:53:05;96564.59;;;16.16
67966;BMP280;54749;47.850;9.002;2022-07-10T02:55:32;96564.31;;;16.19
67966;BMP280;54749;47.850;9.002;2022-07-10T02:57:59;96561.78;;;16.19
67966;BMP280;54749;47.850;9.002;2022-07-10T03:00:27;96567.56;;;16.21
67966;BMP280;54749;47.850;9.002;2022-07-10T03:02:54;96561.53;;;16.22
67966;BMP280;54749;47.850;9.002;2022-07-10T03:05:22;96569.03;;;16.24
67966;BMP280;54749;47.850;9.002;2022-07-10T03:07:49;96565.00;;;16.21
67966;BMP280;54749;47.850;9.002;2022-07-10T03:10:16;96562.47;;;16.21
67966;BMP280;54749;47.850;9.002;2022-07-10T03:12:43;96575.22;;;16.21
67966;BMP280;54749;47.850;9.002;2022-07-10T03:15:10;96564.06;;;16.22
67966;BMP280;54749;47.850;9.002;2022-07-10T03:17:37;96564.06;;;16.22
67966;BMP280;54749;47.850;9.002;2022-07-10T03:20:04;96570.53;;;16.26
67966;BMP280;54749;47.850;9.002;2022-07-10T03:22:31;96564.72;;;16.24
67966;BMP280;54749;47.850;9.002;2022-07-10T03:24:59;96564.06;;;16.22
67966;BMP280;54749;47.850;9.002;2022-07-10T03:27:26;96564.72;;;16.24
67966;BMP280;54749;47.850;9.002;2022-07-10T03:29:52;96561.25;;;16.25
67966;BMP280;54749;47.850;9.002;2022-07-10T03:32:19;96562.19;;;16.24
67966;BMP280;54749;47.850;9.002;2022-07-10T03:34:46;96564.88;;;16.23
67966;BMP280;54749;47.850;9.002;2022-07-10T03:37:13;96567.28;;;16.24
67966;BMP280;54749;47.850;9.002;2022-07-10T03:39:40;96569.19;;;16.22
67966;BMP280;54749;47.850;9.002;2022-07-10T03:42:07;96570.13;;;16.21
67966;BMP280;54749;47.850;9.002;2022-07-10T03:44:34;96569.03;;;16.24
67966;BMP280;54749;47.850;9.002;2022-07-10T03:47:00;96563.53;;;16.28
67966;BMP280;54749;47.850;9.002;2022-07-10T03:49:27;96568.38;;;16.31
67966;BMP280;54749;47.850;9.002;2022-07-10T03:51:54;96575.88;;;16.32
67966;BMP280;54749;47.850;9.002;2022-07-10T03:54:21;96573.19;;;16.34
67966;BMP280;54749;47.850;9.002;2022-07-10T03:56:49;96575.06;;;16.41
67966;BMP280;54749;47.850;9.002;2022-07-10T03:59:35;96580.44;;;16.48
67966;BMP280;54749;47.850;9.002;2022-07-10T04:02:02;96581.78;;;16.51
67966;BMP280;54749;47.850;9.002;2022-07-10T04:04:29;96583.13;;;16.55
67966;BMP280;54749;47.850;9.002;2022-07-10T04:06:56;96593.72;;;16.60
67966;BMP280;54749;47.850;9.002;2022-07-10T04:09:23;96576.56;;;16.62
67966;BMP280;54749;47.850;9.002;2022-07-10T04:11:50;96582.31;;;16.64
67966;BMP280;54749;47.850;9.002;2022-07-10T04:14:17;96582.59;;;16.70
67966;BMP280;54749;47.850;9.002;2022-07-10T04:16:44;96584.97;;;16.72
67966;BMP280;54749;47.850;9.002;2022-07-10T04:19:11;96585.25;;;16.78
67966;BMP280;54749;47.850;9.002;2022-07-10T04:21:37;96579.34;;;16.78
67966;BMP280;54749;47.850;9.002;2022-07-10T04:24:04;96576.25;;;16.74
67966;BMP280;54749;47.850;9.002;2022-07-10T04:26:33;96577.19;;;16.73
67966;BMP280;54749;47.850;9.002;2022-07-10T04:29:00;96575.56;;;16.72
67966;BMP280;54749;47.850;9.002;2022-07-10T04:31:27;96568.84;;;16.71
67966;BMP280;54749;47.850;9.002;2022-07-10T04:33:53;96564.13;;;16.76
67966;BMP280;54749;47.850;9.002;2022-07-10T04:36:23;96576.50;;;16.81
67966;BMP280;54749;47.850;9.002;2022-07-10T04:38:50;96575.84;;;16.79
67966;BMP280;54749;47.850;9.002;2022-07-10T04:41:17;96577.03;;;16.84
67966;BMP280;54749;47.850;9.002;2022-07-10T04:43:45;96583.75;;;16.94
67966;BMP280;54749;47.850;9.002;2022-07-10T04:46:11;96579.03;;;16.99
67966;BMP280;54749;47.850;9.002;2022-07-10T04:48:38;96576.59;;;17.07
67966;BMP280;54749;47.850;9.002;2022-07-10T04:51:05;96584.38;;;17.15
67966;BMP280;54749;47.850;9.002;2022-07-10T04:53:32;96583.53;;;17.23
67966;BMP280;54749;47.850;9.002;2022-07-10T04:55:59;96574.63;;;17.27
67966;BMP280;54749;47.850;9.002;2022-07-10T04:58:26;96576.75;;;17.41
67966;BMP280;54749;47.850;9.002;2022-07-10T05:00:53;96587.81;;;17.58
67966;BMP280;54749;47.850;9.002;2022-07-10T05:03:20;96581.84;;;17.67
67966;BMP280;54749;47.850;9.002;2022-07-10T05:05:47;96589.91;;;17.72
67966;BMP280;54749;47.850;9.002;2022-07-10T05:08:14;96577.50;;;18.03
67966;BMP280;54749;47.850;9.002;2022-07-10T05:10:41;96585.06;;;18.39
67966;BMP280;54749;47.850;9.002;2022-07-10T05:13:10;96583.75;;;18.94
67966;BMP280;54749;47.850;9.002;2022-07-10T05:15:37;96579.03;;;19.31
67966;BMP280;54749;47.850;9.002;2022-07-10T05:18:04;96584.50;;;19.61
67966;BMP280;54749;47.850;9.002;2022-07-10T05:20:32;96581.97;;;19.68
67966;BMP280;54749;47.850;9.002;2022-07-10T05:23:00;96579.56;;;19.67
67966;BMP280;54749;47.850;9.002;2022-07-10T05:25:26;96582.56;;;19.63
67966;BMP280;54749;47.850;9.002;2022-07-10T05:27:57;96583.91;;;19.74
67966;BMP280;54749;47.850;9.002;2022-07-10T05:30:24;96594.81;;;19.76
67966;BMP280;54749;47.850;9.002;2022-07-10T05:32:51;96597.13;;;19.87
67966;BMP280;54749;47.850;9.002;2022-07-10T05:35:18;96586.81;;;19.79
67966;BMP280;54749;47.850;9.002;2022-07-10T05:37:45;96587.31;;;19.83
67966;BMP280;54749;47.850;9.002;2022-07-10T05:40:12;96591.75;;;19.48
67966;BMP280;54749;47.850;9.002;2022-07-10T05:42:39;96602.47;;;19.61
67966;BMP280;54749;47.850;9.002;2022-07-10T05:45:07;96597.94;;;19.55
67966;BMP280;54749;47.850;9.002;2022-07-10T05:47:34;96599.16;;;19.51
67966;BMP280;54749;47.850;9.002;2022-07-10T05:50:02;96606.44;;;19.55
67966;BMP280;54749;47.850;9.002;2022-07-10T05:52:28;96603.25;;;19.36
67966;BMP280;54749;47.850;9.002;2022-07-10T05:54:56;96599.59;;;19.39
67966;BMP280;54749;47.850;9.002;2022-07-10T05:57:23;96607.06;;;19.57
67966;BMP280;54749;47.850;9.002;2022-07-10T05:59:50;96595.75;;;19.67
67966;BMP280;54749;47.850;9.002;2022-07-10T06:02:17;96597.38;;;19.68
67966;BMP280;54749;47.850;9.002;2022-07-10T06:04:51;96603.28;;;19.44
67966;BMP280;54749;47.850;9.002;2022-07-10T06:07:18;96603.25;;;19.61
67966;BMP280;54749;47.850;9.002;2022-07-10T06:09:44;96598.16;;;19.44
67966;BMP280;54749;47.850;9.002;2022-07-10T06:12:12;96603.47;;;19.43
67966;BMP280;54749;47.850;9.002;2022-07-10T06:14:38;96599.59;;;19.64
67966;BMP280;54749;47.850;9.002;2022-07-10T06:17:05;96601.72;;;19.76
67966;BMP280;54749;47.850;9.002;2022-07-10T06:19:32;96594.28;;;20.05
67966;BMP280;54749;47.850;9.002;2022-07-10T06:21:59;96593.44;;;20.69
67966;BMP280;54749;47.850;9.002;2022-07-10T06:24:45;96589.25;;;20.75
67966;BMP280;54749;47.850;9.002;2022-07-10T06:27:12;96590.41;;;20.73
67966;BMP280;54749;47.850;9.002;2022-07-10T06:29:38;96595.69;;;20.64
67966;BMP280;54749;47.850;9.002;2022-07-10T06:32:06;96586.03;;;20.35
67966;BMP280;54749;47.850;9.002;2022-07-10T06:34:33;96596.63;;;20.39
67966;BMP280;54749;47.850;9.002;2022-07-10T06:36:59;96594.88;;;20.63
67966;BMP280;54749;47.850;9.002;2022-07-10T06:39:31;96601.47;;;20.81
67966;BMP280;54749;47.850;9.002;2022-07-10T06:42:02;96602.75;;;20.70
67966;BMP280;54749;47.850;9.002;2022-07-10T06:44:29;96615.44;;;20.55
67966;BMP280;54749;47.850;9.002;2022-07-10T06:46:57;96600.97;;;20.47
67966;BMP280;54749;47.850;9.002;2022-07-10T06:49:43;96599.50;;;20.44
67966;BMP280;54749;47.850;9.002;2022-07-10T06:52:11;96597.94;;;20.98
67966;BMP280;54749;47.850;9.002;2022-07-10T06:54:38;96600.59;;;21.43
67966;BMP280;54749;47.850;9.002;2022-07-10T06:57:06;96612.69;;;21.27
67966;BMP280;54749;47.850;9.002;2022-07-10T06:59:32;96601.31;;;21.29
67966;BMP280;54749;47.850;9.002;2022-07-10T07:01:59;96599.31;;;21.39
67966;BMP280;54749;47.850;9.002;2022-07-10T07:04:26;96607.34;;;21.44
67966;BMP280;54749;47.850;9.002;2022-07-10T07:06:53;96600.75;;;21.49
67966;BMP280;54749;47.850;9.002;2022-07-10T07:09:20;96597.53;;;21.55
67966;BMP280;54749;47.850;9.002;2022-07-10T07:11:47;96606.78;;;21.11
67966;BMP280;54749;47.850;9.002;2022-07-10T07:14:14;96609.34;;;20.72
67966;BMP280;54749;47.850;9.002;2022-07-10T07:16:41;96607.09;;;20.77
67966;BMP280;54749;47.850;9.002;2022-07-10T07:19:25;96604.69;;;20.75
67966;BMP280;54749;47.850;9.002;2022-07-10T07:21:58;96606.25;;;21.00
67966;BMP280;54749;47.850;9.002;2022-07-10T07:24:44;96602.00;;;22.06
67966;BMP280;54749;47.850;9.002;2022-07-10T07:27:11;96601.63;;;22.68
67966;BMP280;54749;47.850;9.002;2022-07-10T07:29:38;96595.53;;;23.41
67966;BMP280;54749;47.850;9.002;2022-07-10T07:32:05;96589.38;;;24.33
67966;BMP280;54749;47.850;9.002;2022-07-10T07:34:32;96584.22;;;25.62
67966;BMP280;54749;47.850;9.002;2022-07-10T07:36:59;96578.97;;;26.41
67966;BMP280;54749;47.850;9.002;2022-07-10T07:39:26;96572.91;;;28.30
67966;BMP280;54749;47.850;9.002;2022-07-10T07:41:53;96567.53;;;29.16
67966;BMP280;54749;47.850;9.002;2022-07-10T07:44:20;96587.41;;;27.94
67966;BMP280;54749;47.850;9.002;2022-07-10T07:46:55;96570.59;;;27.97
67966;BMP280;54749;47.850;9.002;2022-07-10T07:49:22;96575.63;;;29.55
67966;BMP280;54749;47.850;9.002;2022-07-10T07:51:49;96562.84;;;29.89
67966;BMP280;54749;47.850;9.002;2022-07-10T07:54:16;96579.81;;;28.48
67966;BMP280;54749;47.850;9.002;2022-07-10T07:56:43;96581.91;;;27.66
67966;BMP280;54749;47.850;9.002;2022-07-10T07:59:10;96578.91;;;27.37
67966;BMP280;54749;47.850;9.002;2022-07-10T08:01:38;96577.69;;;29.00
67966;BMP280;54749;47.850;9.002;2022-07-10T08:04:06;96559.75;;;30.73
67966;BMP280;54749;47.850;9.002;2022-07-10T08:06:36;96561.09;;;30.64
67966;BMP280;54749;47.850;9.002;2022-07-10T08:09:03;96567.88;;;30.65
67966;BMP280;54749;47.850;9.002;2022-07-10T08:11:30;96571.22;;;29.56
67966;BMP280;54749;47.850;9.002;2022-07-10T08:13:58;96564.94;;;30.16
67966;BMP280;54749;47.850;9.002;2022-07-10T08:16:25;96567.72;;;31.29
67966;BMP280;54749;47.850;9.002;2022-07-10T08:18:52;96562.03;;;30.24
67966;BMP280;54749;47.850;9.002;2022-07-10T08:21:19;96562.34;;;28.55
67966;BMP280;54749;47.850;9.002;2022-07-10T08:23:46;96579.50;;;27.45
67966;BMP280;54749;47.850;9.002;2022-07-10T08:26:12;96574.75;;;27.05
67966;BMP280;54749;47.850;9.002;2022-07-10T08:28:39;96576.97;;;28.07
67966;BMP280;54749;47.850;9.002;2022-07-10T08:31:07;96551.59;;;30.24
67966;BMP280;54749;47.850;9.002;2022-07-10T08:33:41;96546.34;;;31.10
67966;BMP280;54749;47.850;9.002;2022-07-10T08:36:08;96542.31;;;32.57
67966;BMP280;54749;47.850;9.002;2022-07-10T08:38:55;96552.56;;;32.09
67966;BMP280;54749;47.850;9.002;2022-07-10T08:41:26;96559.03;;;29.26
67966;BMP280;54749;47.850;9.002;2022-07-10T08:43:53;96557.50;;;29.84
67966;BMP280;54749;47.850;9.002;2022-07-10T08:46:20;96548.75;;;31.33
67966;BMP280;54749;47.850;9.002;2022-07-10T08:48:53;96547.31;;;30.46
67966;BMP280;54749;47.850;9.002;2022-07-10T08:51:24;96539.75;;;30.67
67966;BMP280;54749;47.850;9.002;2022-07-10T08:54:00;96544.63;;;30.35
67966;BMP280;54749;47.850;9.002;2022-07-10T08:56:27;96554.59;;;29.33
67966;BMP280;54749;47.850;9.002;2022-07-10T08:58:55;96563.09;;;27.51
67966;BMP280;54749;47.850;9.002;2022-07-10T09:01:23;96553.78;;;27.12
67966;BMP280;54749;47.850;9.002;2022-07-10T09:03:50;96564.09;;;26.62
67966;BMP280;54749;47.850;9.002;2022-07-10T09:06:19;96538.38;;;28.47
67966;BMP280;54749;47.850;9.002;2022-07-10T09:09:06;96524.72;;;30.92
67966;BMP280;54749;47.850;9.002;2022-07-10T09:11:33;96520.94;;;32.49
67966;BMP280;54749;47.850;9.002;2022-07-10T09:14:04;96512.38;;;34.45
67966;BMP280;54749;47.850;9.002;2022-07-10T09:16:32;96522.53;;;32.50
67966;BMP280;54749;47.850;9.002;2022-07-10T09:19:16;96552.84;;;28.37
67966;BMP280;54749;47.850;9.002;2022-07-10T09:21:45;96558.53;;;26.77
67966;BMP280;54749;47.850;9.002;2022-07-10T09:24:12;96561.91;;;27.54
67966;BMP280;54749;47.850;9.002;2022-07-10T09:26:40;96553.22;;;28.70
67966;BMP280;54749;47.850;9.002;2022-07-10T09:29:11;96538.31;;;31.89
67966;BMP280;54749;47.850;9.002;2022-07-10T09:31:52;96532.72;;;32.90
67966;BMP280;54749;47.850;9.002;2022-07-10T09:34:38;96531.25;;;31.12
67966;BMP280;54749;47.850;9.002;2022-07-10T09:37:19;96540.63;;;30.33
67966;BMP280;54749;47.850;9.002;2022-07-10T09:42:27;96544.41;;;31.05
67966;BMP280;54749;47.850;9.002;2022-07-10T09:47:59;96520.22;;;35.22
67966;BMP280;54749;47.850;9.002;2022-07-10T09:50:33;96505.44;;;36.57
67966;BMP280;54749;47.850;9.002;2022-07-10T09:55:35;96491.16;;;37.84
67966;BMP280;54749;47.850;9.002;2022-07-10T09:58:04;96496.28;;;38.23
67966;BMP280;54749;47.850;9.002;2022-07-10T10:00:36;96491.66;;;38.90
67966;BMP280;54749;47.850;9.002;2022-07-10T10:03:09;96487.22;;;38.86
67966;BMP280;54749;47.850;9.002;2022-07-10T10:06:02;96497.53;;;36.62
67966;BMP280;54749;47.850;9.002;2022-07-10T10:08:37;96502.03;;;35.96
67966;BMP280;54749;47.850;9.002;2022-07-10T10:11:08;96506.78;;;34.15
67966;BMP280;54749;47.850;9.002;2022-07-10T10:13:41;96508.03;;;32.59
67966;BMP280;54749;47.850;9.002;2022-07-10T10:16:09;96513.97;;;31.22
67966;BMP280;54749;47.850;9.002;2022-07-10T10:18:37;96510.13;;;33.21
67966;BMP280;54749;47.850;9.002;2022-07-10T10:21:25;96498.63;;;35.56
67966;BMP280;54749;47.850;9.002;2022-07-10T10:23:53;96487.31;;;37.14
67966;BMP280;54749;47.850;9.002;2022-07-10T10:26:22;96481.69;;;37.59
67966;BMP280;54749;47.850;9.002;2022-07-10T10:28:51;96491.75;;;36.84
67966;BMP280;54749;47.850;9.002;2022-07-10T10:31:20;96492.94;;;34.97
67966;BMP280;54749;47.850;9.002;2022-07-10T10:33:47;96512.84;;;33.10
67966;BMP280;54749;47.850;9.002;2022-07-10T10:39:16;96516.97;;;30.34
67966;BMP280;54749;47.850;9.002;2022-07-10T10:49:24;96494.28;;;32.25
67966;BMP280;54749;47.850;9.002;2022-07-10T10:52:04;96489.59;;;32.27
67966;BMP280;54749;47.850;9.002;2022-07-10T10:59:59;96478.16;;;33.93
67966;BMP280;54749;47.850;9.002;2022-07-10T11:02:28;96483.78;;;32.36
67966;BMP280;54749;47.850;9.002;2022-07-10T11:07:53;96487.38;;;30.23
67966;BMP280;54749;47.850;9.002;2022-07-10T11:15:28;96490.03;;;28.33
67966;BMP280;54749;47.850;9.002;2022-07-10T11:18:03;96486.91;;;27.82
67966;BMP280;54749;47.850;9.002;2022-07-10T11:20:36;96476.63;;;28.00
67966;BMP280;54749;47.850;9.002;2022-07-10T11:26:35;96470.13;;;29.40
67966;BMP280;54749;47.850;9.002;2022-07-10T11:29:04;96474.88;;;29.26
67966;BMP280;54749;47.850;9.002;2022-07-10T11:31:34;96478.25;;;27.88
67966;BMP280;54749;47.850;9.002;2022-07-10T11:34:04;96488.84;;;27.31
67966;BMP280;54749;47.850;9.002;2022-07-10T11:36:31;96479.50;;;27.05
67966;BMP280;54749;47.850;9.002;2022-07-10T11:39:04;96477.69;;;27.18
67966;BMP280;54749;47.850;9.002;2022-07-10T11:41:32;96461.47;;;27.91
67966;BMP280;54749;47.850;9.002;2022-07-10T11:44:00;96463.31;;;28.50
67966;BMP280;54749;47.850;9.002;2022-07-10T11:46:29;96454.66;;;29.28
67966;BMP280;54749;47.850;9.002;2022-07-10T11:48:57;96442.56;;;29.86
67966;BMP280;54749;47.850;9.002;2022-07-10T11:51:27;96452.97;;;29.68
67966;BMP280;54749;47.850;9.002;2022-07-10T11:56:32;96456.97;;;28.40
67966;BMP280;54749;47.850;9.002;2022-07-10T11:59:02;96453.13;;;27.82
67966;BMP280;54749;47.850;9.002;2022-07-10T12:01:31;96465.28;;;26.38
67966;BMP280;54749;47.850;9.002;2022-07-10T12:04:02;96454.69;;;26.14
67966;BMP280;54749;47.850;9.002;2022-07-10T12:06:32;96450.97;;;26.61
67966;BMP280;54749;47.850;9.002;2022-07-10T12:09:08;96457.28;;;26.14
67966;BMP280;54749;47.850;9.002;2022-07-10T12:11:36;96461.13;;;25.27
67966;BMP280;54749;47.850;9.002;2022-07-10T12:16:42;96453.63;;;25.90
67966;BMP280;54749;47.850;9.002;2022-07-10T12:19:12;96448.56;;;26.53
67966;BMP280;54749;47.850;9.002;2022-07-10T12:21:40;96443.25;;;27.48
67966;BMP280;54749;47.850;9.002;2022-07-10T12:24:09;96448.09;;;27.19
67966;BMP280;54749;47.850;9.002;2022-07-10T12:26:38;96443.84;;;27.43
67966;BMP280;54749;47.850;9.002;2022-07-10T12:29:05;96459.75;;;26.47
67966;BMP280;54749;47.850;9.002;2022-07-10T12:31:33;96457.50;;;26.25
67966;BMP280;54749;47.850;9.002;2022-07-10T12:34:03;96448.09;;;26.12
67966;BMP280;54749;47.850;9.002;2022-07-10T12:36:50;96440.56;;;26.35
67966;BMP280;54749;47.850;9.002;2022-07-10T12:39:19;96443.38;;;26.40
67966;BMP280;54749;47.850;9.002;2022-07-10T12:41:59;96448.13;;;26.24
67966;BMP280;54749;47.850;9.002;2022-07-10T12:47:07;96444.78;;;26.49
67966;BMP280;54749;47.850;9.002;2022-07-10T12:49:51;96434.16;;;27.07
67966;BMP280;54749;47.850;9.002;2022-07-10T12:52:23;96430.44;;;27.53
67966;BMP280;54749;47.850;9.002;2022-07-10T13:00:22;96438.19;;;26.40
67966;BMP280;54749;47.850;9.002;2022-07-10T13:02:56;96434.53;;;26.16
67966;BMP280;54749;47.850;9.002;2022-07-10T13:05:34;96434.00;;;26.77
67966;BMP280;54749;47.850;9.002;2022-07-10T13:10:41;96439.41;;;26.57
67966;BMP280;54749;47.850;9.002;2022-07-10T13:13:08;96433.88;;;25.89
67966;BMP280;54749;47.850;9.002;2022-07-10T13:15:36;96429.13;;;25.99
67966;BMP280;54749;47.850;9.002;2022-07-10T13:18:15;96426.19;;;26.39
67966;BMP280;54749;47.850;9.002;2022-07-10T13:20:48;96436.41;;;26.47
67966;BMP280;54749;47.850;9.002;2022-07-10T13:23:16;96440.06;;;25.42
67966;BMP280;54749;47.850;9.002;2022-07-10T13:25:43;96429.44;;;25.25
67966;BMP280;54749;47.850;9.002;2022-07-10T13:28:10;96425.75;;;25.46
67966;BMP280;54749;47.850;9.002;2022-07-10T13:30:38;96422.66;;;25.69
67966;BMP280;54749;47.850;9.002;2022-07-10T13:33:05;96416.09;;;25.73
67966;BMP280;54749;47.850;9.002;2022-07-10T13:35:34;96425.22;;;25.57
67966;BMP280;54749;47.850;9.002;2022-07-10T13:38:02;96423.63;;;25.62
67966;BMP280;54749;47.850;9.002;2022-07-10T13:40:37;96425.03;;;25.64
67966;BMP280;54749;47.850;9.002;2022-07-10T13:43:04;96423.53;;;25.83
67966;BMP280;54749;47.850;9.002;2022-07-10T13:45:35;96421.75;;;25.83
67966;BMP280;54749;47.850;9.002;2022-07-10T13:48:10;96425.13;;;25.83
67966;BMP280;54749;47.850;9.002;2022-07-10T13:50:42;96426.06;;;25.70
67966;BMP280;54749;47.850;9.002;2022-07-10T13:53:08;96423.59;;;25.49
67966;BMP280;54749;47.850;9.002;2022-07-10T13:55:36;96416.41;;;25.51
67966;BMP280;54749;47.850;9.002;2022-07-10T13:58:03;96421.66;;;25.70
67966;BMP280;54749;47.850;9.002;2022-07-10T14:00:30;96417.97;;;25.92
67966;BMP280;54749;47.850;9.002;2022-07-10T14:02:57;96414.97;;;25.88
67966;BMP280;54749;47.850;9.002;2022-07-10T14:05:26;96416.41;;;26.29
67966;BMP280;54749;47.850;9.002;2022-07-10T14:07:53;96417.81;;;26.25
67966;BMP280;54749;47.850;9.002;2022-07-10T14:10:20;96420.56;;;25.98
67966;BMP280;54749;47.850;9.002;2022-07-10T14:12:47;96420.84;;;25.57
67966;BMP280;54749;47.850;9.002;2022-07-10T14:15:14;96419.53;;;25.34
67966;BMP280;54749;47.850;9.002;2022-07-10T14:17:41;96422.06;;;25.22
67966;BMP280;54749;47.850;9.002;2022-07-10T14:20:10;96429.31;;;25.32
67966;BMP280;54749;47.850;9.002;2022-07-10T14:22:37;96421.09;;;25.23
67966;BMP280;54749;47.850;9.002;2022-07-10T14:25:06;96423.75;;;25.42
67966;BMP280;54749;47.850;9.002;2022-07-10T14:27:35;96420.03;;;25.63
67966;BMP280;54749;47.850;9.002;2022-07-10T14:30:03;96411.28;;;25.64
67966;BMP280;54749;47.850;9.002;2022-07-10T14:32:31;96417.19;;;25.39
67966;BMP280;54749;47.850;9.002;2022-07-10T14:34:57;96419.38;;;25.09
67966;BMP280;54749;47.850;9.002;2022-07-10T14:37:24;96424.09;;;24.99
67966;BMP280;54749;47.850;9.002;2022-07-10T14:39:51;96423.56;;;24.77
67966;BMP280;54749;47.850;9.002;2022-07-10T14:42:18;96419.28;;;24.90
67966;BMP280;54749;47.850;9.002;2022-07-10T14:44:45;96413.03;;;25.11
67966;BMP280;54749;47.850;9.002;2022-07-10T14:47:12;96410.91;;;24.88
67966;BMP280;54749;47.850;9.002;2022-07-10T14:49:40;96411.50;;;24.90
67966;BMP280;54749;47.850;9.002;2022-07-10T14:52:07;96410.91;;;24.88
67966;BMP280;54749;47.850;9.002;2022-07-10T14:54:34;96418.78;;;24.74
67966;BMP280;54749;47.850;9.002;2022-07-10T14:57:01;96422.19;;;24.54
67966;BMP280;54749;47.850;9.002;2022-07-10T14:59:30;96421.66;;;24.59
67966;BMP280;54749;47.850;9.002;2022-07-10T15:01:57;96423.56;;;24.30
67966;BMP280;54749;47.850;9.002;2022-07-10T15:04:24;96420.50;;;23.65
67966;BMP280;54749;47.850;9.002;2022-07-10T15:06:51;96417.81;;;23.73
67966;BMP280;54749;47.850;9.002;2022-07-10T15:09:18;96427.13;;;23.88